Time;durP1;ratioP1;P1;durP2;ratioP2;P2;SDS_P1;SDS_P2;PMS_P1;PMS_P2;Temp;Humidity;BMP_temperature;BMP_pressure;BME280_temperature;BME280_humidity;BME280_pressure;Samples;Min_cycle;Max_cycle;Signal;HPM_P1;HPM_P2
2020/12/03 00:01:09;;;;;;;6.12;4.10;;;;;;;10.11;63.46;102390.17;1724950;83;21222;-47
2020/12/03 00:03:58;;;;;;;5.20;3.60;;;;;;;9.79;64.43;102394.69;1724753;83;21140;-47
2020/12/03 00:06:32;;;;;;;6.95;4.10;;;;;;;9.62;65.15;102393.68;1719152;83;21169;-47
2020/12/03 00:09:07;;;;;;;9.20;4.22;;;;;;;9.61;65.31;102391.95;1688370;84;21627;-47
2020/12/03 00:11:38;;;;;;;5.28;3.62;;;;;;;9.61;65.43;102391.95;1675934;85;21172;-47
2020/12/03 00:14:07;;;;;;;6.97;4.90;;;;;;;9.60;65.41;102396.70;1675866;85;21610;-47
2020/12/03 00:16:35;;;;;;;8.08;4.17;;;;;;;9.58;65.55;102400.16;1676065;85;21217;-47
2020/12/03 00:19:05;;;;;;;9.60;4.42;;;;;;;9.57;65.83;102395.39;1675728;85;21335;-47
2020/12/03 00:21:37;;;;;;;5.28;4.37;;;;;;;9.56;65.81;102401.42;1675862;85;21183;-47
2020/12/03 00:24:06;;;;;;;5.97;4.85;;;;;;;9.54;65.91;102397.95;1678002;83;21835;-47
2020/12/03 00:26:34;;;;;;;6.58;4.55;;;;;;;9.55;66.05;102406.20;1726340;83;21176;-47
2020/12/03 00:29:02;;;;;;;5.47;4.45;;;;;;;9.56;66.11;102405.78;1734628;82;21185;-47
2020/12/03 00:31:31;;;;;;;8.18;4.22;;;;;;;9.55;66.15;102407.50;1749554;81;21160;-47
2020/12/03 00:33:59;;;;;;;8.40;4.70;;;;;;;9.55;66.33;102400.13;1740041;82;21148;-47
2020/12/03 00:36:27;;;;;;;5.97;4.37;;;;;;;9.54;66.33;102401.00;1741893;81;21160;-47
2020/12/03 00:38:56;;;;;;;7.55;5.15;;;;;;;9.53;66.32;102397.94;1735586;81;21186;-47
2020/12/03 00:41:24;;;;;;;7.10;4.78;;;;;;;9.53;66.37;102411.81;1728603;83;21302;-47
2020/12/03 00:43:52;;;;;;;7.15;5.33;;;;;;;9.54;66.55;102406.20;1709729;83;21156;-47
2020/12/03 00:46:22;;;;;;;6.33;5.28;;;;;;;9.56;66.60;102404.02;1719252;83;21180;-47
2020/12/03 00:48:51;;;;;;;6.42;4.97;;;;;;;9.56;66.51;102401.42;1751319;82;21195;-47
2020/12/03 00:51:19;;;;;;;6.83;5.53;;;;;;;9.54;66.44;102404.44;1755639;82;21156;-47
2020/12/03 00:53:49;;;;;;;8.43;4.97;;;;;;;9.53;66.48;102400.12;1755405;82;21169;-47
2020/12/03 00:56:20;;;;;;;7.80;4.65;;;;;;;9.53;66.57;102397.94;1754512;82;21155;-46
2020/12/03 00:58:50;;;;;;;7.62;5.15;;;;;;;9.53;66.57;102397.52;1755445;82;21582;-47
2020/12/03 01:01:18;;;;;;;8.78;4.37;;;;;;;9.51;66.72;102403.13;1755599;82;21145;-47
2020/12/03 01:03:47;;;;;;;7.12;4.65;;;;;;;9.52;66.78;102396.22;1754943;82;21180;-47
2020/12/03 01:06:17;;;;;;;8.48;4.65;;;;;;;9.50;66.63;102396.18;1724075;82;21581;-47
2020/12/03 01:08:46;;;;;;;7.37;4.97;;;;;;;9.47;66.68;102401.37;1754604;82;21112;-46
2020/12/03 01:11:14;;;;;;;7.85;5.08;;;;;;;9.43;66.87;102399.60;1754516;81;21163;-47
2020/12/03 01:13:42;;;;;;;7.55;5.35;;;;;;;9.43;66.93;102394.41;1754600;82;21175;-47
2020/12/03 01:16:18;;;;;;;8.68;5.58;;;;;;;9.43;66.99;102395.70;1754724;82;21121;-47
2020/12/03 01:18:45;;;;;;;8.48;5.67;;;;;;;9.45;67.06;102395.29;1737449;82;21207;-47
2020/12/03 01:21:21;;;;;;;7.83;5.35;;;;;;;9.45;67.01;102393.98;1753809;82;21310;-47
2020/12/03 01:23:50;;;;;;;8.38;5.53;;;;;;;9.46;67.02;102398.31;1754488;82;21188;-47
2020/12/03 01:26:19;;;;;;;7.75;4.90;;;;;;;9.46;67.04;102394.41;1754722;82;21116;-46
2020/12/03 01:28:47;;;;;;;5.83;4.55;;;;;;;9.45;66.98;102377.09;1754619;82;21140;-47
2020/12/03 01:31:16;;;;;;;5.45;4.33;;;;;;;9.47;66.94;102380.58;1755022;80;21294;-47
2020/12/03 01:33:44;;;;;;;6.78;4.40;;;;;;;9.49;66.95;102373.67;1754864;82;21159;-47
2020/12/03 01:36:13;;;;;;;5.87;3.90;;;;;;;9.48;66.99;102374.51;1755566;82;21291;-47
2020/12/03 01:38:42;;;;;;;5.08;3.75;;;;;;;9.50;66.89;102369.34;1754984;82;21112;-46
2020/12/03 01:41:10;;;;;;;5.95;3.75;;;;;;;9.48;66.78;102365.41;1754750;82;21140;-47
2020/12/03 01:43:42;;;;;;;8.58;4.35;;;;;;;9.47;66.75;102375.38;1755862;80;21168;-47
2020/12/03 01:46:10;;;;;;;;;;;;;;;9.45;66.82;102368.01;1765797;81;21136;-47
2020/12/03 01:48:55;;;;;;;8.00;5.60;;;;;;;9.44;66.90;102376.64;1764054;81;20157;-47
2020/12/03 01:51:38;;;;;;;6.22;4.85;;;;;;;9.44;67.10;102372.74;1758706;81;21168;-47
2020/12/03 01:54:10;;;;;;;7.85;5.72;;;;;;;9.47;67.11;102371.48;1758834;81;21323;-46
2020/12/03 01:57:07;;;;;;;8.43;5.72;;;;;;;9.47;67.04;102375.38;1654889;86;21220;-47
2020/12/03 01:59:41;;;;;;;8.00;5.87;;;;;;;9.47;67.06;102370.19;1652443;86;21638;-47
2020/12/03 02:02:12;;;;;;;9.43;4.80;;;;;;;9.49;67.04;102365.87;1654065;86;21185;-47
2020/12/03 02:04:40;;;;;;;7.50;5.40;;;;;;;9.45;67.12;102368.01;1655828;85;21240;-46
2020/12/03 02:07:12;;;;;;;8.10;5.87;;;;;;;9.44;67.26;102371.45;1652736;86;21201;-47
2020/12/03 02:09:40;;;;;;;7.15;5.58;;;;;;;9.40;67.30;102370.98;1654054;86;21149;-46
2020/12/03 02:12:10;;;;;;;7.08;5.70;;;;;;;9.39;67.35;102374.45;1655492;86;21179;-46
2020/12/03 02:14:38;;;;;;;7.70;5.58;;;;;;;9.39;67.41;102371.85;1653347;86;21193;-47
2020/12/03 02:17:06;;;;;;;8.80;5.95;;;;;;;9.41;67.39;102375.33;1655205;86;21224;-47
2020/12/03 02:19:35;;;;;;;7.60;6.22;;;;;;;9.43;67.50;102372.32;1654321;86;21323;-47
2020/12/03 02:22:06;;;;;;;8.85;5.67;;;;;;;9.46;67.54;102368.89;1651025;86;21581;-47
2020/12/03 02:24:37;;;;;;;9.00;6.25;;;;;;;9.49;67.43;102367.17;1654371;86;21160;-47
2020/12/03 02:27:08;;;;;;;9.30;5.30;;;;;;;9.49;67.39;102369.77;1655045;86;21177;-48
2020/12/03 02:29:44;;;;;;;8.00;5.62;;;;;;;9.54;67.40;102374.56;1803234;79;23300;-43
2020/12/03 02:32:12;;;;;;;7.95;5.45;;;;;;;9.51;67.27;102373.25;1768513;80;21576;-47
2020/12/03 02:34:41;;;;;;;10.25;5.85;;;;;;;9.50;67.16;102368.89;1774786;80;21277;-47
2020/12/03 02:37:09;;;;;;;8.35;5.72;;;;;;;9.48;67.14;102369.77;1771911;80;21269;-47
2020/12/03 02:39:38;;;;;;;8.58;5.70;;;;;;;9.46;67.26;102364.98;1769580;80;21544;-47
2020/12/03 02:42:08;;;;;;;9.98;6.42;;;;;;;9.48;67.42;102365.87;1769374;80;21140;-47
2020/12/03 02:44:45;;;;;;;8.93;6.50;;;;;;;9.48;67.43;102366.71;1769521;80;21108;-47
2020/12/03 02:47:16;;;;;;;11.25;6.67;;;;;;;9.51;67.34;102362.86;1769623;80;21195;-47
2020/12/03 02:49:44;;;;;;;7.78;5.95;;;;;;;9.53;67.10;102360.27;1769778;80;21140;-47
2020/12/03 02:52:14;;;;;;;8.55;5.78;;;;;;;9.51;66.98;102353.77;1769553;80;21152;-47
2020/12/03 02:54:42;;;;;;;7.55;5.90;;;;;;;9.51;67.02;102347.69;1771184;80;21156;-47
2020/12/03 02:57:11;;;;;;;9.00;7.08;;;;;;;9.47;67.09;102346.80;1772686;80;21278;-47
2020/12/03 02:59:40;;;;;;;10.48;6.97;;;;;;;9.47;67.10;102344.20;1768426;80;21281;-47
2020/12/03 03:02:08;;;;;;;12.75;6.87;;;;;;;9.48;67.11;102337.28;1773567;80;21163;-47
2020/12/03 03:04:36;;;;;;;8.78;7.00;;;;;;;9.48;67.08;102340.73;1760526;80;21164;-47
2020/12/03 03:07:05;;;;;;;8.08;6.20;;;;;;;9.46;67.15;102334.66;1770422;80;21266;-47
2020/12/03 03:09:33;;;;;;;11.15;7.47;;;;;;;9.46;67.23;102334.66;1772317;80;21108;-46
2020/12/03 03:12:01;;;;;;;9.30;6.45;;;;;;;9.47;67.27;102332.52;1772587;80;21140;-46
2020/12/03 03:14:30;;;;;;;8.30;7.05;;;;;;;9.50;67.23;102343.37;1771342;80;21302;-47
2020/12/03 03:16:58;;;;;;;8.75;7.37;;;;;;;9.51;67.20;102348.56;1770019;80;21290;-47
2020/12/03 03:19:26;;;;;;;9.95;7.50;;;;;;;9.53;67.19;102345.97;1767612;80;21124;-47
2020/12/03 03:21:55;;;;;;;9.53;6.45;;;;;;;9.54;67.08;102352.47;1773583;80;21196;-47
2020/12/03 03:24:23;;;;;;;9.45;6.75;;;;;;;9.53;66.99;102348.15;1772670;80;21553;-47
2020/12/03 03:26:52;;;;;;;10.70;8.00;;;;;;;9.52;66.99;102354.64;1772291;80;21136;-47
2020/12/03 03:29:20;;;;;;;9.53;7.17;;;;;;;9.53;67.08;102357.24;1776161;80;21088;-47
2020/12/03 03:31:48;;;;;;;9.88;7.78;;;;;;;9.54;67.19;102355.06;1778207;80;21128;-47
2020/12/03 03:34:17;;;;;;;10.98;7.75;;;;;;;9.54;67.18;102353.77;1777639;80;21139;-47
2020/12/03 03:36:45;;;;;;;10.18;7.67;;;;;;;9.55;67.18;102342.53;1778072;80;21600;-47
2020/12/03 03:39:20;;;;;;;11.40;8.05;;;;;;;9.54;67.10;102347.27;1777871;79;21560;-47
2020/12/03 03:41:48;;;;;;;9.78;7.80;;;;;;;9.51;67.26;102351.16;1778185;80;22158;-46
2020/12/03 03:44:16;;;;;;;15.03;8.20;;;;;;;9.48;67.45;102348.98;1773772;80;21301;-47
2020/12/03 03:46:45;;;;;;;10.88;8.15;;;;;;;9.51;67.49;102348.98;1780473;80;21179;-47
2020/12/03 03:49:13;;;;;;;13.08;8.73;;;;;;;9.53;67.50;102352.47;1779664;80;21155;-47
2020/12/03 03:51:41;;;;;;;11.95;7.87;;;;;;;9.53;67.43;102349.45;1777291;78;21116;-47
2020/12/03 03:54:09;;;;;;;10.72;8.05;;;;;;;9.53;67.37;102357.66;1779437;80;21528;-47
2020/12/03 03:56:37;;;;;;;13.78;8.60;;;;;;;9.51;67.48;102358.08;1779793;80;21148;-47
2020/12/03 03:59:06;;;;;;;12.70;8.45;;;;;;;9.54;67.55;102355.52;1780509;80;21274;-47
2020/12/03 04:01:34;;;;;;;17.62;7.95;;;;;;;9.57;67.49;102359.00;1766876;80;21480;-47
2020/12/03 04:04:02;;;;;;;12.88;8.58;;;;;;;9.58;67.43;102358.59;1777373;80;21144;-47
2020/12/03 04:06:32;;;;;;;12.73;8.55;;;;;;;9.59;67.34;102359.89;1779079;79;21159;-47
2020/12/03 04:09:00;;;;;;;9.70;7.65;;;;;;;9.61;67.47;102360.77;1779682;80;21290;-47
2020/12/03 04:11:28;;;;;;;13.08;8.68;;;;;;;9.63;67.28;102356.45;1780553;80;21143;-47
2020/12/03 04:13:56;;;;;;;11.57;7.55;;;;;;;9.63;67.16;102354.27;1780642;80;21309;-47
2020/12/03 04:16:25;;;;;;;11.15;7.78;;;;;;;9.64;67.05;102350.38;1766883;80;21116;-47
2020/12/03 04:18:53;;;;;;;16.20;6.87;;;;;;;9.66;66.97;102347.39;1782983;80;21285;-47
2020/12/03 04:21:21;;;;;;;9.48;7.15;;;;;;;9.64;66.92;102349.08;1777136;80;22255;-47
2020/12/03 04:23:49;;;;;;;10.82;7.50;;;;;;;9.60;66.85;102344.72;1777594;79;21563;-47
2020/12/03 04:26:17;;;;;;;10.53;6.58;;;;;;;9.54;67.02;102343.38;1776794;80;21579;-47
2020/12/03 04:28:45;;;;;;;9.03;6.70;;;;;;;9.51;66.99;102335.58;1778116;80;21195;-47
2020/12/03 04:31:13;;;;;;;8.65;6.47;;;;;;;9.53;67.12;102340.77;1780590;80;21130;-47
2020/12/03 04:33:42;;;;;;;11.08;7.20;;;;;;;9.53;67.17;102341.65;1780588;80;21321;-47
2020/12/03 04:36:11;;;;;;;8.18;5.50;;;;;;;9.58;67.25;102339.09;1778951;80;21178;-47
2020/12/03 04:38:39;;;;;;;7.47;6.05;;;;;;;9.60;67.16;102342.57;1776803;80;21128;-47
2020/12/03 04:41:09;;;;;;;11.20;6.75;;;;;;;9.60;67.18;102342.57;1780437;80;21715;-47
2020/12/03 04:43:47;;;;;;;7.87;5.53;;;;;;;9.61;67.01;102341.70;1772192;80;21131;-47
2020/12/03 04:46:31;;;;;;;8.00;6.40;;;;;;;9.59;67.04;102344.30;1777276;80;21135;-47
2020/12/03 04:49:23;;;;;;;12.73;6.95;;;;;;;9.56;67.11;102347.31;1775940;80;21135;-47
2020/12/03 04:52:23;;;;;;;9.80;6.40;;;;;;;9.57;67.23;102348.61;1773755;80;21579;-46
2020/12/03 04:55:54;;;;;;;7.85;5.95;;;;;;;9.64;67.16;102348.23;1810221;79;22819;-47
2020/12/03 04:59:06;;;;;;;7.08;5.40;;;;;;;9.58;67.24;102356.83;1779343;80;21160;-47
2020/12/03 05:01:58;;;;;;;8.35;5.60;;;;;;;9.59;67.23;102348.19;1783803;80;21164;-47
2020/12/03 05:05:05;;;;;;;6.58;5.30;;;;;;;9.59;67.21;102355.98;1731328;83;21168;-47
2020/12/03 05:07:33;;;;;;;7.47;4.70;;;;;;;9.61;67.11;102350.38;1730298;83;21540;-47
2020/12/03 05:10:35;;;;;;;6.17;4.55;;;;;;;9.61;67.07;102355.57;1731115;83;21818;-46
2020/12/03 05:13:03;;;;;;;;;;;;;;;9.62;67.09;102363.79;1733729;83;21174;-47
2020/12/03 05:15:35;;;;;;;7.35;5.47;;;;;;;9.63;67.07;102361.65;1731439;83;20160;-47
2020/12/03 05:18:25;;;;;;;7.83;6.12;;;;;;;9.62;67.02;102362.49;1730889;83;21176;-47
2020/12/03 05:20:56;;;;;;;8.60;6.08;;;;;;;9.60;67.03;102359.02;1731532;83;21288;-47
2020/12/03 05:23:31;;;;;;;9.30;5.67;;;;;;;9.62;67.04;102359.89;1731559;83;21171;-47
2020/12/03 05:26:18;;;;;;;9.80;6.12;;;;;;;9.69;67.13;102366.89;1812361;79;22926;-46
2020/12/03 05:29:06;;;;;;;8.50;6.50;;;;;;;9.68;67.12;102362.56;1769010;80;21180;-47
2020/12/03 05:31:43;;;;;;;11.73;6.53;;;;;;;9.66;67.13;102366.89;1701358;83;21162;-46
2020/12/03 05:34:20;;;;;;;14.70;6.78;;;;;;;9.70;67.12;102353.05;1771530;79;22965;-47
2020/12/03 05:36:59;;;;;;;9.43;6.70;;;;;;;9.66;67.20;102359.09;1739941;82;21677;-47
2020/12/03 05:39:43;;;;;;;12.40;5.83;;;;;;;9.65;67.28;102362.53;1735988;82;21294;-47
2020/12/03 05:42:15;;;;;;;11.83;6.97;;;;;;;9.67;67.28;102368.61;1735693;82;21607;-45
2020/12/03 05:44:51;;;;;;;9.98;6.85;;;;;;;9.68;67.32;102356.07;1735790;82;21609;-46
2020/12/03 05:47:34;;;;;;;8.93;6.17;;;;;;;9.72;67.27;102364.33;1741876;82;21117;-47
2020/12/03 05:50:15;;;;;;;6.87;5.67;;;;;;;9.74;67.17;102366.52;1735105;82;21176;-47
2020/12/03 05:53:03;;;;;;;8.73;5.70;;;;;;;9.78;67.09;102365.67;1741191;82;21282;-47
2020/12/03 05:55:33;;;;;;;11.35;5.83;;;;;;;9.80;66.91;102363.95;1737019;82;21121;-47
2020/12/03 05:58:23;;;;;;;9.08;6.03;;;;;;;9.76;66.97;102366.09;1741601;82;21180;-47
2020/12/03 06:01:10;;;;;;;9.95;6.30;;;;;;;9.79;66.90;102360.89;1771599;79;22647;-47
2020/12/03 06:04:07;;;;;;;8.18;6.08;;;;;;;9.72;67.00;102369.53;1746043;82;21165;-47
2020/12/03 06:07:07;;;;;;;8.75;6.10;;;;;;;9.72;67.03;102369.53;1738933;82;21608;-47
2020/12/03 06:10:03;;;;;;;9.08;6.45;;;;;;;9.70;67.02;102372.55;1735289;82;21565;-47
2020/12/03 06:12:56;;;;;;;10.65;7.00;;;;;;;9.67;67.10;102375.53;1733522;82;21176;-46
2020/12/03 06:16:02;;;;;;;10.30;7.45;;;;;;;9.65;67.14;102378.13;1736929;82;21136;-46
2020/12/03 06:18:53;;;;;;;12.63;7.87;;;;;;;9.62;67.33;102370.29;1737859;80;21128;-47
2020/12/03 06:21:49;;;;;;;12.27;8.23;;;;;;;9.62;67.49;102365.09;1714490;83;21203;-47
2020/12/03 06:25:12;;;;;;;12.47;9.25;;;;;;;9.66;67.59;102369.48;1819965;79;23394;-47
2020/12/03 06:28:05;;;;;;;13.38;9.60;;;;;;;9.61;67.58;102371.16;1726362;83;21308;-47
2020/12/03 06:31:00;;;;;;;14.30;9.68;;;;;;;9.58;67.65;102365.92;1756383;81;21189;-48
2020/12/03 06:33:37;;;;;;;14.90;9.13;;;;;;;9.55;67.77;102376.31;1664309;86;21196;-48
2020/12/03 06:36:25;;;;;;;15.10;9.40;;;;;;;9.55;67.94;102372.84;1771618;79;22948;-47
2020/12/03 06:39:24;;;;;;;11.97;8.73;;;;;;;9.48;67.92;102367.17;1739313;82;21156;-47
2020/12/03 06:42:26;;;;;;;14.38;10.03;;;;;;;9.42;68.06;102365.37;1740848;82;21157;-47
2020/12/03 06:45:11;;;;;;;18.82;11.22;;;;;;;9.38;68.34;102371.39;1731601;82;21302;-48
2020/12/03 06:48:27;;;;;;;14.85;9.38;;;;;;;9.34;68.59;102373.95;1731601;82;21152;-47
2020/12/03 06:51:36;;;;;;;13.20;9.83;;;;;;;9.34;68.76;102376.13;1739830;82;21286;-47
2020/12/03 06:54:44;;;;;;;13.45;10.18;;;;;;;9.34;68.96;102376.55;1736555;82;21172;-47
2020/12/03 06:58:08;;;;;;;12.95;9.23;;;;;;;9.35;69.10;102379.17;1738183;82;21133;-47
2020/12/03 07:01:01;;;;;;;14.05;10.43;;;;;;;9.37;69.09;102381.36;1737848;82;21290;-47
2020/12/03 07:03:47;;;;;;;14.78;10.28;;;;;;;9.35;69.14;102387.39;1735894;82;21291;-48
2020/12/03 07:06:48;;;;;;;14.30;9.18;;;;;;;9.30;69.23;102389.94;1729511;82;21290;-47
2020/12/03 07:09:34;;;;;;;14.47;9.63;;;;;;;9.29;69.31;102387.34;1682754;85;21151;-47
2020/12/03 07:12:41;;;;;;;15.95;9.63;;;;;;;9.29;69.40;102388.22;1696717;84;21171;-47
2020/12/03 07:15:42;;;;;;;13.25;9.03;;;;;;;9.30;69.46;102392.54;1694903;84;21188;-47
2020/12/03 07:18:38;;;;;;;16.75;9.88;;;;;;;9.34;69.50;102393.43;1651288;86;21378;-47
2020/12/03 07:21:20;;;;;;;15.63;9.93;;;;;;;9.41;69.48;102385.73;1807253;79;22865;-48
2020/12/03 07:24:03;;;;;;;15.38;10.35;;;;;;;9.38;69.49;102390.88;1769373;80;21372;-47
2020/12/03 07:26:54;;;;;;;18.90;10.70;;;;;;;9.40;69.43;102387.87;1773634;80;21184;-47
2020/12/03 07:29:57;;;;;;;14.23;9.78;;;;;;;9.41;69.44;102391.34;1773808;80;21159;-46
2020/12/03 07:32:43;;;;;;;16.30;10.93;;;;;;;9.43;69.48;102385.73;1776118;80;21147;-47
2020/12/03 07:35:53;;;;;;;17.25;10.65;;;;;;;9.42;69.51;102390.05;1779508;80;21156;-47
2020/12/03 07:38:38;;;;;;;17.90;10.43;;;;;;;9.39;69.49;102391.75;1771537;80;21148;-47
2020/12/03 07:41:06;;;;;;;19.50;10.75;;;;;;;9.36;69.63;102384.80;1771566;80;21152;-47
2020/12/03 07:43:38;;;;;;;16.32;11.00;;;;;;;9.34;69.70;102385.63;1770325;80;21600;-47
2020/12/03 07:46:32;;;;;;;18.52;11.53;;;;;;;9.32;69.72;102383.03;1782840;80;21140;-47
2020/12/03 07:49:00;;;;;;;20.17;12.03;;;;;;;9.33;69.69;102382.19;1659905;84;21681;-49
2020/12/03 07:51:28;;;;;;;17.48;11.63;;;;;;;9.32;69.68;102376.53;1695156;83;21200;-48
2020/12/03 07:54:21;;;;;;;18.85;12.73;;;;;;;9.29;69.79;102383.02;1703572;84;21141;-46
2020/12/03 07:56:51;;;;;;;20.30;12.55;;;;;;;9.32;69.84;102381.73;1699110;84;21217;-47
2020/12/03 07:59:29;;;;;;;19.15;11.78;;;;;;;9.34;69.84;102383.03;1704613;84;21169;-48
2020/12/03 08:02:00;;;;;;;21.65;11.85;;;;;;;9.35;69.88;102375.70;1690921;84;21661;-48
2020/12/03 08:04:35;;;;;;;19.70;12.82;;;;;;;9.37;69.88;102378.77;1696237;84;21664;-47
2020/12/03 08:07:08;;;;;;;21.48;12.55;;;;;;;9.35;69.82;102380.48;1700714;84;21212;-46
2020/12/03 08:09:43;;;;;;;16.67;11.03;;;;;;;9.34;69.85;102381.31;1698756;83;21161;-43
2020/12/03 08:12:17;;;;;;;25.10;12.70;;;;;;;9.33;69.87;102377.00;1692722;84;21582;-47
2020/12/03 08:14:55;;;;;;;20.70;12.45;;;;;;;9.32;69.92;102384.75;1700706;84;21199;-46
2020/12/03 08:17:33;;;;;;;21.52;13.10;;;;;;;9.36;69.91;102379.61;1810148;79;23268;-48
2020/12/03 08:20:15;;;;;;;20.08;11.33;;;;;;;9.31;69.85;102389.09;1772943;80;21132;-47
2020/12/03 08:22:50;;;;;;;18.05;11.50;;;;;;;9.31;69.90;102378.71;1712567;83;21150;-48
2020/12/03 08:25:27;;;;;;;17.95;11.43;;;;;;;9.34;69.92;102376.13;1771351;79;22920;-47
2020/12/03 08:28:03;;;;;;;21.77;13.03;;;;;;;9.30;69.89;102370.45;1727955;82;21121;-48
2020/12/03 08:30:37;;;;;;;20.43;12.07;;;;;;;9.31;69.83;102364.84;1740244;82;21567;-46
2020/12/03 08:33:17;;;;;;;19.30;11.50;;;;;;;9.28;69.89;102378.66;1737313;82;21176;-47
2020/12/03 08:35:52;;;;;;;20.02;11.10;;;;;;;9.28;69.89;102375.19;1730688;82;21562;-47
2020/12/03 08:38:50;;;;;;;16.10;9.98;;;;;;;9.30;69.89;102371.75;1814029;78;22933;-44
2020/12/03 08:41:19;;;;;;;19.30;12.78;;;;;;;9.26;69.96;102372.59;1778705;80;21247;-45
2020/12/03 08:43:50;;;;;;;19.85;12.50;;;;;;;9.27;69.91;102376.06;1780686;80;21176;-44
2020/12/03 08:46:21;;;;;;;20.52;12.05;;;;;;;9.25;69.86;102365.67;1721051;83;21656;-45
2020/12/03 08:48:48;;;;;;;21.20;13.13;;;;;;;9.25;69.80;102365.67;1743644;81;21182;-45
2020/12/03 08:51:17;;;;;;;23.98;14.15;;;;;;;9.23;69.57;102362.19;1746478;81;21183;-48
2020/12/03 08:53:49;;;;;;;22.80;13.70;;;;;;;9.18;69.43;102363.86;1729309;81;21191;-49
2020/12/03 08:56:25;;;;;;;20.35;13.35;;;;;;;9.12;69.40;102363.80;1704131;82;21252;-47
2020/12/03 08:59:17;;;;;;;21.27;13.83;;;;;;;9.06;69.46;102365.04;1726354;82;21322;-48
2020/12/03 09:01:52;;;;;;;25.80;15.53;;;;;;;9.00;69.43;102362.39;1693135;83;21323;-48
2020/12/03 09:04:24;;;;;;;23.92;14.58;;;;;;;8.92;69.45;102362.73;1694556;83;21666;-48
2020/12/03 09:06:53;;;;;;;24.70;15.15;;;;;;;8.83;69.46;102362.63;1727534;83;21655;-47
2020/12/03 09:09:24;;;;;;;23.87;14.70;;;;;;;8.75;69.55;102366.86;1714337;83;21334;-46
2020/12/03 09:11:58;;;;;;;22.40;16.37;;;;;;;8.73;69.78;102371.17;1748567;79;28267;-49
2020/12/03 09:14:27;;;;;;;22.22;13.28;;;;;;;8.70;69.90;102366.80;1737634;80;21197;-44
2020/12/03 09:17:10;;;;;;;22.75;14.65;;;;;;;8.76;69.77;102365.99;1729107;82;21601;-47
2020/12/03 09:19:40;;;;;;;22.17;14.20;;;;;;;8.74;69.75;102355.60;1744732;82;21145;-47
2020/12/03 09:22:08;;;;;;;24.05;14.35;;;;;;;8.73;69.79;102356.89;1680234;84;21203;-47
2020/12/03 09:24:37;;;;;;;24.52;14.53;;;;;;;8.71;69.88;102362.49;1696250;84;21172;-46
2020/12/03 09:27:06;;;;;;;23.77;13.58;;;;;;;8.71;69.74;102352.99;1668451;84;21167;-44
2020/12/03 09:29:35;;;;;;;23.77;13.13;;;;;;;8.68;69.71;102352.06;1733788;81;21142;-46
2020/12/03 09:32:08;;;;;;;21.00;12.95;;;;;;;8.66;69.77;102351.17;1728330;82;21160;-46
2020/12/03 09:34:36;;;;;;;27.73;14.70;;;;;;;8.64;69.75;102358.08;1738450;82;21150;-45
2020/12/03 09:37:06;;;;;;;21.70;13.55;;;;;;;8.61;69.69;102358.05;1729564;82;21164;-46
2020/12/03 09:39:35;;;;;;;23.25;15.10;;;;;;;8.55;69.73;102355.39;1731736;82;21153;-47
2020/12/03 09:42:04;;;;;;;22.15;12.28;;;;;;;8.50;69.73;102357.05;1734727;82;21136;-47
2020/12/03 09:44:34;;;;;;;22.13;13.60;;;;;;;8.46;69.81;102353.55;1732741;82;21624;-47
2020/12/03 09:47:14;;;;;;;25.23;15.15;;;;;;;8.46;69.90;102350.95;1739698;82;21153;-48
2020/12/03 09:49:43;;;;;;;25.17;14.40;;;;;;;8.45;69.70;102349.20;1732359;82;21184;-46
2020/12/03 09:52:14;;;;;;;25.85;15.98;;;;;;;8.40;69.77;102356.08;1737097;82;21160;-47
2020/12/03 09:54:43;;;;;;;24.07;14.43;;;;;;;8.36;69.83;102352.12;1731575;82;21596;-47
2020/12/03 09:57:12;;;;;;;25.77;15.55;;;;;;;8.35;69.91;102354.25;1738387;82;21302;-47
2020/12/03 09:59:42;;;;;;;26.07;14.78;;;;;;;8.34;69.92;102351.23;1738322;82;21656;-47
2020/12/03 10:02:20;;;;;;;23.15;13.85;;;;;;;8.32;69.89;102351.22;1734153;82;21142;-47
2020/12/03 10:05:13;;;;;;;23.45;14.83;;;;;;;8.31;69.79;102357.66;1732668;82;21136;-48
2020/12/03 10:08:22;;;;;;;20.75;13.28;;;;;;;8.27;69.82;102353.28;1736926;82;21152;-46
2020/12/03 10:11:37;;;;;;;24.20;14.50;;;;;;;8.23;69.94;102349.75;1729608;82;21141;-47
2020/12/03 10:14:44;;;;;;;27.05;16.05;;;;;;;8.20;70.09;102352.33;1719724;83;21125;-47
2020/12/03 10:17:17;;;;;;;26.30;15.00;;;;;;;8.16;70.12;102345.36;1737322;82;21149;-45
2020/12/03 10:19:47;;;;;;;22.35;14.38;;;;;;;8.15;70.36;102341.89;1719324;82;21148;-46
2020/12/03 10:22:26;;;;;;;25.08;14.75;;;;;;;8.18;70.39;102334.13;1741489;82;21286;-45
2020/12/03 10:25:11;;;;;;;20.88;13.18;;;;;;;8.20;70.33;102337.61;1734942;82;21275;-47
2020/12/03 10:28:21;;;;;;;23.25;14.15;;;;;;;8.27;70.24;102333.83;1735109;82;21703;-47
2020/12/03 10:30:55;;;;;;;25.52;14.98;;;;;;;8.29;70.12;102328.23;1740437;82;21113;-48
2020/12/03 10:33:26;;;;;;;24.50;14.87;;;;;;;8.31;70.13;102330.42;1728109;82;21156;-48
2020/12/03 10:35:55;;;;;;;25.27;14.68;;;;;;;8.30;69.97;102330.88;1740333;82;21180;-47
2020/12/03 10:38:44;;;;;;;26.93;16.30;;;;;;;8.30;70.03;102331.30;1741360;82;21147;-46
2020/12/03 10:41:12;;;;;;;23.12;14.28;;;;;;;8.28;69.93;102334.30;1733460;82;21152;-48
2020/12/03 10:43:45;;;;;;;28.15;16.05;;;;;;;8.31;70.01;102338.20;1737349;82;21148;-43
2020/12/03 10:46:18;;;;;;;28.40;16.90;;;;;;;8.33;69.95;102337.80;1733057;82;21306;-46
2020/12/03 10:48:50;;;;;;;26.95;16.00;;;;;;;8.39;70.07;102337.91;1730794;82;21148;-47
2020/12/03 10:51:18;;;;;;;28.45;17.55;;;;;;;8.46;69.69;102331.92;1737954;82;21145;-47
2020/12/03 10:53:48;;;;;;;24.35;14.65;;;;;;;8.43;69.42;102326.71;1734741;82;21148;-46
2020/12/03 10:56:16;;;;;;;24.72;15.13;;;;;;;8.41;69.49;102332.31;1738202;82;21188;-46
2020/12/03 11:04:03;;;;;;;32.48;19.50;;;;;;;8.39;69.19;102322.34;1646911;86;21209;-48
2020/12/03 11:06:37;;;;;;;34.67;19.57;;;;;;;8.37;69.29;102317.11;1776228;79;23055;-44
2020/12/03 11:09:05;;;;;;;30.68;17.62;;;;;;;8.27;69.26;102326.05;1741789;82;21410;-47
2020/12/03 11:11:36;;;;;;;33.70;19.57;;;;;;;8.21;69.48;102318.63;1745190;82;21283;-47
2020/12/03 11:14:11;;;;;;;37.65;22.00;;;;;;;8.21;69.45;102319.92;1739586;81;21125;-47
2020/12/03 11:16:48;;;;;;;34.58;19.70;;;;;;;8.16;69.35;102318.98;1740908;82;21179;-47
2020/12/03 11:19:18;;;;;;;31.95;18.10;;;;;;;8.11;69.43;102314.18;1734336;82;21572;-47
2020/12/03 11:22:20;;;;;;;36.70;22.05;;;;;;;8.10;69.55;102315.43;1731583;82;21184;-44
2020/12/03 11:24:54;;;;;;;;;;;;;;;8.09;69.42;102321.48;1659762;86;21196;-44
2020/12/03 11:27:22;;;;;;;38.55;22.70;;;;;;;8.07;69.40;102327.95;1653119;86;20347;-43
2020/12/03 11:29:52;;;;;;;38.65;22.22;;;;;;;8.04;69.55;102316.64;1658756;86;21605;-47
2020/12/03 11:32:24;;;;;;;37.98;22.00;;;;;;;7.99;69.62;102317.91;1658875;86;21169;-47
2020/12/03 11:34:53;;;;;;;39.75;22.25;;;;;;;7.97;69.66;102319.61;1660148;86;21158;-47
2020/12/03 11:37:26;;;;;;;42.50;24.00;;;;;;;7.97;69.70;102313.55;1658475;86;21164;-46
2020/12/03 11:40:05;;;;;;;40.78;23.35;;;;;;;7.98;69.78;102314.86;1659662;86;21184;-48
2020/12/03 11:45:49;;;;;;;39.67;21.57;;;;;;;7.96;69.66;102307.91;1761680;79;22942;-46
2020/12/03 11:48:11;;;;;;;40.33;22.37;;;;;;;7.90;69.74;102308.70;1658799;85;21358;-45
2020/12/03 11:50:25;;;;;;;39.98;21.33;;;;;;;7.91;69.72;102313.02;1652304;86;21129;-45
2020/12/03 11:53:01;;;;;;;36.93;20.65;;;;;;;7.90;69.73;102316.47;1656361;86;21188;-47
2020/12/03 11:55:29;;;;;;;35.30;19.07;;;;;;;7.89;69.78;102314.72;1627227;88;21196;-45
2020/12/03 11:58:05;;;;;;;32.05;18.30;;;;;;;7.90;69.82;102318.19;1645816;86;21176;-49
2020/12/03 12:00:33;;;;;;;35.98;21.40;;;;;;;7.88;69.81;102310.81;1621733;88;21256;-46
2020/12/03 12:03:08;;;;;;;38.23;21.48;;;;;;;7.88;70.03;102309.52;1613820;88;21240;-46
2020/12/03 12:08:14;;;;;;;39.95;21.57;;;;;;;7.92;69.82;102309.59;1651483;86;21614;-48
2020/12/03 12:13:19;;;;;;;32.70;19.60;;;;;;;7.95;69.80;102294.52;1766503;79;23431;-47
2020/12/03 12:15:48;;;;;;;33.48;19.73;;;;;;;7.92;69.77;102296.62;1737509;80;21144;-49
2020/12/03 12:18:17;;;;;;;35.78;20.17;;;;;;;7.92;69.72;102301.81;1734125;82;21173;-45
2020/12/03 12:20:48;;;;;;;34.45;20.32;;;;;;;7.93;69.58;102304.83;1677634;85;21167;-47
2020/12/03 12:23:17;;;;;;;34.92;20.70;;;;;;;7.90;69.70;102306.11;1674409;84;21163;-46